Terminal Aerodrome Forecast
Issued by NWS Wichita, KS

Home | Current Version | Previous Version | Graphics & Text | Print | Product List | Glossary On
Versions: 1 2 3 4 5 6 7 8 9 10 11 12 13
799
FTUS43 KICT 172330
TAFICT
TAF
KICT 172330Z 1800/1824 16012KT P6SM FEW070 SCT250
     FM180200 15008KT P6SM SCT250
     FM181400 19012KT P6SM SCT250
     FM181800 18012G20KT P6SM SCT050=

USA.gov is the U.S. government's official web portal to all federal, state and local government web resources and services.